sensor_id;sensor_type;location;lat;lon;timestamp;P1;durP1;ratioP1;P2;durP2;ratioP2
21681;SDS011;11002;48.256;10.084;2022-08-19T00:01:23;1.00;;;0.90;;
21681;SDS011;11002;48.256;10.084;2022-08-19T00:03:51;1.00;;;1.00;;
21681;SDS011;11002;48.256;10.084;2022-08-19T00:06:19;1.10;;;1.10;;
21681;SDS011;11002;48.256;10.084;2022-08-19T00:08:46;1.00;;;1.00;;
21681;SDS011;11002;48.256;10.084;2022-08-19T00:11:13;1.85;;;1.27;;
21681;SDS011;11002;48.256;10.084;2022-08-19T00:13:42;0.90;;;0.90;;
21681;SDS011;11002;48.256;10.084;2022-08-19T00:16:11;1.25;;;1.17;;
21681;SDS011;11002;48.256;10.084;2022-08-19T00:18:38;1.30;;;1.20;;
21681;SDS011;11002;48.256;10.084;2022-08-19T00:21:05;1.20;;;1.20;;
21681;SDS011;11002;48.256;10.084;2022-08-19T00:23:34;1.63;;;1.08;;
21681;SDS011;11002;48.256;10.084;2022-08-19T00:26:02;1.30;;;1.20;;
21681;SDS011;11002;48.256;10.084;2022-08-19T00:28:29;0.98;;;0.98;;
21681;SDS011;11002;48.256;10.084;2022-08-19T00:30:58;1.30;;;1.20;;
21681;SDS011;11002;48.256;10.084;2022-08-19T00:33:27;1.33;;;1.23;;
21681;SDS011;11002;48.256;10.084;2022-08-19T00:35:57;1.38;;;1.27;;
21681;SDS011;11002;48.256;10.084;2022-08-19T00:38:25;1.05;;;1.05;;
21681;SDS011;11002;48.256;10.084;2022-08-19T00:40:53;1.30;;;1.20;;
21681;SDS011;11002;48.256;10.084;2022-08-19T00:43:21;1.13;;;1.02;;
21681;SDS011;11002;48.256;10.084;2022-08-19T00:45:51;1.13;;;1.10;;
21681;SDS011;11002;48.256;10.084;2022-08-19T00:48:20;1.10;;;1.10;;
21681;SDS011;11002;48.256;10.084;2022-08-19T00:50:49;1.40;;;1.30;;
21681;SDS011;11002;48.256;10.084;2022-08-19T00:53:19;1.05;;;1.05;;
21681;SDS011;11002;48.256;10.084;2022-08-19T00:55:50;1.10;;;1.10;;
21681;SDS011;11002;48.256;10.084;2022-08-19T00:58:22;1.20;;;1.20;;
21681;SDS011;11002;48.256;10.084;2022-08-19T01:00:54;1.60;;;1.50;;
21681;SDS011;11002;48.256;10.084;2022-08-19T01:03:23;1.08;;;0.98;;
21681;SDS011;11002;48.256;10.084;2022-08-19T01:05:50;1.40;;;1.30;;
21681;SDS011;11002;48.256;10.084;2022-08-19T01:08:20;1.20;;;1.20;;
21681;SDS011;11002;48.256;10.084;2022-08-19T01:10:48;1.23;;;1.15;;
21681;SDS011;11002;48.256;10.084;2022-08-19T01:13:20;1.40;;;1.30;;
21681;SDS011;11002;48.256;10.084;2022-08-19T01:15:52;1.55;;;1.30;;
21681;SDS011;11002;48.256;10.084;2022-08-19T01:18:23;1.23;;;1.13;;
21681;SDS011;11002;48.256;10.084;2022-08-19T01:20:53;1.30;;;1.20;;
21681;SDS011;11002;48.256;10.084;2022-08-19T01:23:24;1.42;;;1.33;;
21681;SDS011;11002;48.256;10.084;2022-08-19T01:26:09;1.15;;;1.13;;
21681;SDS011;11002;48.256;10.084;2022-08-19T01:28:38;1.60;;;1.50;;
21681;SDS011;11002;48.256;10.084;2022-08-19T01:31:08;1.50;;;1.40;;
21681;SDS011;11002;48.256;10.084;2022-08-19T01:33:38;1.60;;;1.50;;
21681;SDS011;11002;48.256;10.084;2022-08-19T01:36:06;1.35;;;1.25;;
21681;SDS011;11002;48.256;10.084;2022-08-19T01:38:38;1.50;;;1.40;;
21681;SDS011;11002;48.256;10.084;2022-08-19T01:41:08;1.30;;;1.20;;
21681;SDS011;11002;48.256;10.084;2022-08-19T01:43:36;1.40;;;1.30;;
21681;SDS011;11002;48.256;10.084;2022-08-19T01:46:04;1.50;;;1.40;;
21681;SDS011;11002;48.256;10.084;2022-08-19T01:48:35;1.70;;;1.33;;
21681;SDS011;11002;48.256;10.084;2022-08-19T01:51:05;1.80;;;1.70;;
21681;SDS011;11002;48.256;10.084;2022-08-19T01:53:33;1.60;;;1.50;;
21681;SDS011;11002;48.256;10.084;2022-08-19T01:56:03;1.92;;;1.45;;
21681;SDS011;11002;48.256;10.084;2022-08-19T01:58:32;1.83;;;1.52;;
21681;SDS011;11002;48.256;10.084;2022-08-19T02:01:02;1.73;;;1.50;;
21681;SDS011;11002;48.256;10.084;2022-08-19T02:03:31;1.58;;;1.48;;
21681;SDS011;11002;48.256;10.084;2022-08-19T02:06:00;1.70;;;1.60;;
21681;SDS011;11002;48.256;10.084;2022-08-19T02:08:31;1.67;;;1.58;;
21681;SDS011;11002;48.256;10.084;2022-08-19T02:10:59;1.67;;;1.58;;
21681;SDS011;11002;48.256;10.084;2022-08-19T02:13:28;1.80;;;1.67;;
21681;SDS011;11002;48.256;10.084;2022-08-19T02:15:56;1.67;;;1.58;;
21681;SDS011;11002;48.256;10.084;2022-08-19T02:18:24;1.80;;;1.70;;
21681;SDS011;11002;48.256;10.084;2022-08-19T02:20:52;1.90;;;1.80;;
21681;SDS011;11002;48.256;10.084;2022-08-19T02:23:19;1.98;;;1.77;;
21681;SDS011;11002;48.256;10.084;2022-08-19T02:25:47;1.73;;;1.60;;
21681;SDS011;11002;48.256;10.084;2022-08-19T02:28:15;1.77;;;1.67;;
21681;SDS011;11002;48.256;10.084;2022-08-19T02:30:44;1.75;;;1.65;;
21681;SDS011;11002;48.256;10.084;2022-08-19T02:33:12;1.95;;;1.85;;
21681;SDS011;11002;48.256;10.084;2022-08-19T02:35:40;1.77;;;1.67;;
21681;SDS011;11002;48.256;10.084;2022-08-19T02:38:09;2.00;;;1.90;;
21681;SDS011;11002;48.256;10.084;2022-08-19T02:40:51;2.28;;;2.00;;
21681;SDS011;11002;48.256;10.084;2022-08-19T02:43:20;2.05;;;1.90;;
21681;SDS011;11002;48.256;10.084;2022-08-19T02:45:49;1.92;;;1.83;;
21681;SDS011;11002;48.256;10.084;2022-08-19T02:48:17;1.90;;;1.80;;
21681;SDS011;11002;48.256;10.084;2022-08-19T02:50:46;1.98;;;1.88;;
21681;SDS011;11002;48.256;10.084;2022-08-19T02:53:18;2.35;;;2.15;;
21681;SDS011;11002;48.256;10.084;2022-08-19T02:55:47;2.28;;;2.08;;
21681;SDS011;11002;48.256;10.084;2022-08-19T02:58:16;2.00;;;1.90;;
21681;SDS011;11002;48.256;10.084;2022-08-19T03:00:45;2.35;;;2.15;;
21681;SDS011;11002;48.256;10.084;2022-08-19T03:03:16;1.88;;;1.77;;
21681;SDS011;11002;48.256;10.084;2022-08-19T03:05:44;2.20;;;2.00;;
21681;SDS011;11002;48.256;10.084;2022-08-19T03:08:12;2.78;;;2.10;;
21681;SDS011;11002;48.256;10.084;2022-08-19T03:10:41;2.42;;;2.22;;
21681;SDS011;11002;48.256;10.084;2022-08-19T03:13:11;2.10;;;2.00;;
21681;SDS011;11002;48.256;10.084;2022-08-19T03:15:40;2.65;;;2.45;;
21681;SDS011;11002;48.256;10.084;2022-08-19T03:18:08;2.30;;;2.10;;
21681;SDS011;11002;48.256;10.084;2022-08-19T03:20:41;2.30;;;2.10;;
21681;SDS011;11002;48.256;10.084;2022-08-19T03:23:09;2.00;;;1.90;;
21681;SDS011;11002;48.256;10.084;2022-08-19T03:25:38;2.53;;;2.33;;
21681;SDS011;11002;48.256;10.084;2022-08-19T03:28:08;2.63;;;2.42;;
21681;SDS011;11002;48.256;10.084;2022-08-19T03:30:37;2.05;;;1.95;;
21681;SDS011;11002;48.256;10.084;2022-08-19T03:33:06;2.50;;;2.30;;
21681;SDS011;11002;48.256;10.084;2022-08-19T03:35:34;2.45;;;2.25;;
21681;SDS011;11002;48.256;10.084;2022-08-19T03:38:03;3.88;;;2.30;;
21681;SDS011;11002;48.256;10.084;2022-08-19T03:40:31;2.65;;;2.47;;
21681;SDS011;11002;48.256;10.084;2022-08-19T03:43:00;2.75;;;2.55;;
21681;SDS011;11002;48.256;10.084;2022-08-19T03:45:27;2.53;;;2.33;;
21681;SDS011;11002;48.256;10.084;2022-08-19T03:47:55;2.33;;;2.15;;
21681;SDS011;11002;48.256;10.084;2022-08-19T03:50:22;2.50;;;2.30;;
21681;SDS011;11002;48.256;10.084;2022-08-19T03:52:50;2.63;;;2.42;;
21681;SDS011;11002;48.256;10.084;2022-08-19T03:55:19;2.50;;;2.30;;
21681;SDS011;11002;48.256;10.084;2022-08-19T03:57:47;3.10;;;2.80;;
21681;SDS011;11002;48.256;10.084;2022-08-19T04:00:15;2.75;;;2.55;;
21681;SDS011;11002;48.256;10.084;2022-08-19T04:02:42;2.35;;;2.15;;
21681;SDS011;11002;48.256;10.084;2022-08-19T04:05:10;2.60;;;2.40;;
21681;SDS011;11002;48.256;10.084;2022-08-19T04:07:39;2.45;;;2.28;;
21681;SDS011;11002;48.256;10.084;2022-08-19T04:10:07;2.45;;;2.28;;
21681;SDS011;11002;48.256;10.084;2022-08-19T04:12:36;2.65;;;2.45;;
21681;SDS011;11002;48.256;10.084;2022-08-19T04:15:05;2.55;;;2.35;;
21681;SDS011;11002;48.256;10.084;2022-08-19T04:17:33;3.00;;;2.70;;
21681;SDS011;11002;48.256;10.084;2022-08-19T04:20:01;2.45;;;2.28;;
21681;SDS011;11002;48.256;10.084;2022-08-19T04:22:28;2.60;;;2.40;;
21681;SDS011;11002;48.256;10.084;2022-08-19T04:24:55;2.60;;;2.40;;
21681;SDS011;11002;48.256;10.084;2022-08-19T04:27:23;3.10;;;2.80;;
21681;SDS011;11002;48.256;10.084;2022-08-19T04:29:51;2.70;;;2.50;;
21681;SDS011;11002;48.256;10.084;2022-08-19T04:32:20;3.10;;;2.80;;
21681;SDS011;11002;48.256;10.084;2022-08-19T04:34:48;2.85;;;2.65;;
21681;SDS011;11002;48.256;10.084;2022-08-19T04:37:15;2.58;;;2.38;;
21681;SDS011;11002;48.256;10.084;2022-08-19T04:39:43;2.85;;;2.65;;
21681;SDS011;11002;48.256;10.084;2022-08-19T04:45:09;5.30;;;2.72;;
21681;SDS011;11002;48.256;10.084;2022-08-19T04:47:40;3.00;;;2.80;;
21681;SDS011;11002;48.256;10.084;2022-08-19T04:50:09;2.80;;;2.60;;
21681;SDS011;11002;48.256;10.084;2022-08-19T04:52:37;2.63;;;2.42;;
21681;SDS011;11002;48.256;10.084;2022-08-19T04:55:08;3.00;;;2.80;;
21681;SDS011;11002;48.256;10.084;2022-08-19T04:57:36;3.22;;;2.92;;
21681;SDS011;11002;48.256;10.084;2022-08-19T05:00:06;3.00;;;2.70;;
21681;SDS011;11002;48.256;10.084;2022-08-19T05:02:36;3.10;;;2.90;;
21681;SDS011;11002;48.256;10.084;2022-08-19T05:05:04;2.85;;;2.65;;
21681;SDS011;11002;48.256;10.084;2022-08-19T05:07:32;2.88;;;2.67;;
21681;SDS011;11002;48.256;10.084;2022-08-19T05:09:59;2.60;;;2.40;;
21681;SDS011;11002;48.256;10.084;2022-08-19T05:12:27;3.10;;;2.90;;
21681;SDS011;11002;48.256;10.084;2022-08-19T05:14:54;2.78;;;2.58;;
21681;SDS011;11002;48.256;10.084;2022-08-19T05:17:23;3.30;;;3.10;;
21681;SDS011;11002;48.256;10.084;2022-08-19T05:19:52;2.90;;;2.70;;
21681;SDS011;11002;48.256;10.084;2022-08-19T05:22:37;3.28;;;2.97;;
21681;SDS011;11002;48.256;10.084;2022-08-19T05:25:05;3.42;;;3.13;;
21681;SDS011;11002;48.256;10.084;2022-08-19T05:27:35;3.60;;;3.30;;
21681;SDS011;11002;48.256;10.084;2022-08-19T05:30:03;3.13;;;2.90;;
21681;SDS011;11002;48.256;10.084;2022-08-19T05:32:31;3.33;;;3.00;;
21681;SDS011;11002;48.256;10.084;2022-08-19T05:35:00;3.10;;;2.90;;
21681;SDS011;11002;48.256;10.084;2022-08-19T05:37:28;2.92;;;2.72;;
21681;SDS011;11002;48.256;10.084;2022-08-19T05:39:55;3.20;;;3.00;;
21681;SDS011;11002;48.256;10.084;2022-08-19T05:42:22;3.72;;;3.42;;
21681;SDS011;11002;48.256;10.084;2022-08-19T05:44:50;3.38;;;3.08;;
21681;SDS011;11002;48.256;10.084;2022-08-19T05:47:18;3.15;;;2.92;;
21681;SDS011;11002;48.256;10.084;2022-08-19T05:49:46;3.13;;;2.92;;
21681;SDS011;11002;48.256;10.084;2022-08-19T05:52:16;3.55;;;3.25;;
21681;SDS011;11002;48.256;10.084;2022-08-19T05:54:45;2.80;;;2.60;;
21681;SDS011;11002;48.256;10.084;2022-08-19T05:57:16;3.42;;;3.17;;
21681;SDS011;11002;48.256;10.084;2022-08-19T05:59:44;3.67;;;3.38;;
21681;SDS011;11002;48.256;10.084;2022-08-19T06:02:17;3.50;;;3.20;;
21681;SDS011;11002;48.256;10.084;2022-08-19T06:04:44;3.45;;;3.15;;
21681;SDS011;11002;48.256;10.084;2022-08-19T06:07:11;3.30;;;3.10;;
21681;SDS011;11002;48.256;10.084;2022-08-19T06:09:41;3.50;;;3.20;;
21681;SDS011;11002;48.256;10.084;2022-08-19T06:12:08;3.20;;;3.00;;
21681;SDS011;11002;48.256;10.084;2022-08-19T06:14:36;3.30;;;3.10;;
21681;SDS011;11002;48.256;10.084;2022-08-19T06:17:03;3.47;;;3.10;;
21681;SDS011;11002;48.256;10.084;2022-08-19T06:19:31;3.15;;;2.85;;
21681;SDS011;11002;48.256;10.084;2022-08-19T06:21:59;3.72;;;3.42;;
21681;SDS011;11002;48.256;10.084;2022-08-19T06:24:27;3.40;;;3.10;;
21681;SDS011;11002;48.256;10.084;2022-08-19T06:26:58;3.55;;;3.25;;
21681;SDS011;11002;48.256;10.084;2022-08-19T06:29:27;3.33;;;3.03;;
21681;SDS011;11002;48.256;10.084;2022-08-19T06:31:57;3.92;;;3.50;;
21681;SDS011;11002;48.256;10.084;2022-08-19T06:34:26;3.60;;;3.30;;
21681;SDS011;11002;48.256;10.084;2022-08-19T06:36:59;3.80;;;3.50;;
21681;SDS011;11002;48.256;10.084;2022-08-19T06:39:29;3.50;;;3.20;;
21681;SDS011;11002;48.256;10.084;2022-08-19T06:42:00;3.40;;;3.20;;
21681;SDS011;11002;48.256;10.084;2022-08-19T06:44:32;3.63;;;3.33;;
21681;SDS011;11002;48.256;10.084;2022-08-19T06:47:02;3.88;;;3.58;;
21681;SDS011;11002;48.256;10.084;2022-08-19T06:49:31;3.92;;;3.63;;
21681;SDS011;11002;48.256;10.084;2022-08-19T06:51:59;3.90;;;3.60;;
21681;SDS011;11002;48.256;10.084;2022-08-19T06:54:27;3.92;;;3.63;;
21681;SDS011;11002;48.256;10.084;2022-08-19T06:56:55;3.40;;;3.10;;
21681;SDS011;11002;48.256;10.084;2022-08-19T06:59:24;3.58;;;3.25;;
21681;SDS011;11002;48.256;10.084;2022-08-19T07:01:54;3.55;;;3.25;;
21681;SDS011;11002;48.256;10.084;2022-08-19T07:04:24;3.65;;;3.35;;
21681;SDS011;11002;48.256;10.084;2022-08-19T07:06:56;3.33;;;3.03;;
21681;SDS011;11002;48.256;10.084;2022-08-19T07:09:25;3.42;;;3.13;;
21681;SDS011;11002;48.256;10.084;2022-08-19T07:11:53;3.60;;;3.30;;
21681;SDS011;11002;48.256;10.084;2022-08-19T07:14:22;3.80;;;3.47;;
21681;SDS011;11002;48.256;10.084;2022-08-19T07:16:53;3.75;;;3.45;;
21681;SDS011;11002;48.256;10.084;2022-08-19T07:19:21;3.58;;;3.28;;
21681;SDS011;11002;48.256;10.084;2022-08-19T07:21:51;4.13;;;3.55;;
21681;SDS011;11002;48.256;10.084;2022-08-19T07:24:19;3.50;;;3.20;;
21681;SDS011;11002;48.256;10.084;2022-08-19T07:26:49;3.78;;;3.45;;
21681;SDS011;11002;48.256;10.084;2022-08-19T07:29:18;4.70;;;3.65;;
21681;SDS011;11002;48.256;10.084;2022-08-19T07:31:49;3.95;;;3.65;;
21681;SDS011;11002;48.256;10.084;2022-08-19T07:34:18;3.72;;;3.42;;
21681;SDS011;11002;48.256;10.084;2022-08-19T07:36:45;3.65;;;3.35;;
21681;SDS011;11002;48.256;10.084;2022-08-19T07:39:15;4.82;;;3.55;;
21681;SDS011;11002;48.256;10.084;2022-08-19T07:41:44;10.68;;;4.13;;
21681;SDS011;11002;48.256;10.084;2022-08-19T07:44:12;10.88;;;3.53;;
21681;SDS011;11002;48.256;10.084;2022-08-19T07:46:41;6.25;;;3.67;;
21681;SDS011;11002;48.256;10.084;2022-08-19T07:49:12;4.35;;;3.42;;
21681;SDS011;11002;48.256;10.084;2022-08-19T07:51:43;6.95;;;3.70;;
21681;SDS011;11002;48.256;10.084;2022-08-19T07:54:11;3.80;;;3.50;;
21681;SDS011;11002;48.256;10.084;2022-08-19T07:56:39;3.83;;;3.53;;
21681;SDS011;11002;48.256;10.084;2022-08-19T07:59:06;3.72;;;3.42;;
21681;SDS011;11002;48.256;10.084;2022-08-19T08:01:34;5.80;;;3.45;;
21681;SDS011;11002;48.256;10.084;2022-08-19T08:04:02;3.80;;;3.38;;
21681;SDS011;11002;48.256;10.084;2022-08-19T08:06:49;3.28;;;3.05;;
21681;SDS011;11002;48.256;10.084;2022-08-19T08:09:34;4.05;;;3.63;;
21681;SDS011;11002;48.256;10.084;2022-08-19T08:12:04;5.35;;;3.55;;
21681;SDS011;11002;48.256;10.084;2022-08-19T08:14:36;3.95;;;3.65;;
21681;SDS011;11002;48.256;10.084;2022-08-19T08:17:10;4.00;;;3.67;;
21681;SDS011;11002;48.256;10.084;2022-08-19T08:19:38;4.20;;;3.42;;
21681;SDS011;11002;48.256;10.084;2022-08-19T08:22:09;5.47;;;3.40;;
21681;SDS011;11002;48.256;10.084;2022-08-19T08:25:00;4.28;;;3.88;;
21681;SDS011;11002;48.256;10.084;2022-08-19T08:27:29;4.10;;;3.72;;
21681;SDS011;11002;48.256;10.084;2022-08-19T08:29:57;3.95;;;3.55;;
21681;SDS011;11002;48.256;10.084;2022-08-19T08:32:24;3.78;;;3.40;;
21681;SDS011;11002;48.256;10.084;2022-08-19T08:34:52;4.43;;;3.60;;
21681;SDS011;11002;48.256;10.084;2022-08-19T08:37:21;5.10;;;3.75;;
21681;SDS011;11002;48.256;10.084;2022-08-19T08:39:48;4.22;;;3.78;;
21681;SDS011;11002;48.256;10.084;2022-08-19T08:42:17;5.50;;;3.70;;
21681;SDS011;11002;48.256;10.084;2022-08-19T08:44:49;4.07;;;3.47;;
21681;SDS011;11002;48.256;10.084;2022-08-19T08:47:23;4.05;;;3.65;;
21681;SDS011;11002;48.256;10.084;2022-08-19T08:49:56;4.10;;;3.70;;
21681;SDS011;11002;48.256;10.084;2022-08-19T08:52:29;3.78;;;3.33;;
21681;SDS011;11002;48.256;10.084;2022-08-19T08:55:03;4.40;;;3.70;;
21681;SDS011;11002;48.256;10.084;2022-08-19T08:57:35;3.65;;;3.35;;
21681;SDS011;11002;48.256;10.084;2022-08-19T09:00:07;4.18;;;3.78;;
21681;SDS011;11002;48.256;10.084;2022-08-19T09:02:36;3.67;;;3.38;;
21681;SDS011;11002;48.256;10.084;2022-08-19T09:05:05;3.83;;;3.45;;
21681;SDS011;11002;48.256;10.084;2022-08-19T09:07:40;3.97;;;3.30;;
21681;SDS011;11002;48.256;10.084;2022-08-19T09:10:15;3.72;;;3.42;;
21681;SDS011;11002;48.256;10.084;2022-08-19T09:12:47;3.50;;;3.20;;
21681;SDS011;11002;48.256;10.084;2022-08-19T09:15:27;4.35;;;3.85;;
21681;SDS011;11002;48.256;10.084;2022-08-19T09:17:59;4.25;;;3.83;;
21681;SDS011;11002;48.256;10.084;2022-08-19T09:20:29;4.05;;;3.65;;
21681;SDS011;11002;48.256;10.084;2022-08-19T09:22:58;3.85;;;3.50;;
21681;SDS011;11002;48.256;10.084;2022-08-19T09:25:26;3.90;;;3.60;;
21681;SDS011;11002;48.256;10.084;2022-08-19T09:27:54;4.13;;;3.72;;
21681;SDS011;11002;48.256;10.084;2022-08-19T09:30:23;3.97;;;3.47;;
21681;SDS011;11002;48.256;10.084;2022-08-19T09:32:54;3.67;;;3.33;;
21681;SDS011;11002;48.256;10.084;2022-08-19T09:35:22;3.58;;;3.28;;
21681;SDS011;11002;48.256;10.084;2022-08-19T09:37:50;3.95;;;3.55;;
21681;SDS011;11002;48.256;10.084;2022-08-19T09:40:19;3.90;;;3.60;;
21681;SDS011;11002;48.256;10.084;2022-08-19T09:42:47;3.88;;;3.58;;
21681;SDS011;11002;48.256;10.084;2022-08-19T09:45:15;4.32;;;3.47;;
21681;SDS011;11002;48.256;10.084;2022-08-19T09:47:43;3.88;;;3.58;;
21681;SDS011;11002;48.256;10.084;2022-08-19T09:50:11;4.13;;;3.67;;
21681;SDS011;11002;48.256;10.084;2022-08-19T09:52:39;5.15;;;3.75;;
21681;SDS011;11002;48.256;10.084;2022-08-19T09:55:10;5.20;;;3.50;;
21681;SDS011;11002;48.256;10.084;2022-08-19T09:57:39;4.25;;;3.85;;
21681;SDS011;11002;48.256;10.084;2022-08-19T10:00:07;5.00;;;4.10;;
21681;SDS011;11002;48.256;10.084;2022-08-19T10:02:36;4.57;;;3.80;;
21681;SDS011;11002;48.256;10.084;2022-08-19T10:05:04;3.92;;;3.33;;
21681;SDS011;11002;48.256;10.084;2022-08-19T10:07:49;5.25;;;3.63;;
21681;SDS011;11002;48.256;10.084;2022-08-19T10:10:16;8.20;;;4.07;;
21681;SDS011;11002;48.256;10.084;2022-08-19T10:12:45;3.80;;;3.47;;
21681;SDS011;11002;48.256;10.084;2022-08-19T10:15:14;5.93;;;3.78;;
21681;SDS011;11002;48.256;10.084;2022-08-19T10:17:41;9.68;;;3.63;;
21681;SDS011;11002;48.256;10.084;2022-08-19T10:20:09;5.90;;;4.13;;
21681;SDS011;11002;48.256;10.084;2022-08-19T10:22:37;5.40;;;3.50;;
21681;SDS011;11002;48.256;10.084;2022-08-19T10:25:05;4.80;;;3.78;;
21681;SDS011;11002;48.256;10.084;2022-08-19T10:27:34;4.55;;;3.63;;
21681;SDS011;11002;48.256;10.084;2022-08-19T10:30:04;6.30;;;3.88;;
21681;SDS011;11002;48.256;10.084;2022-08-19T10:32:32;6.47;;;3.88;;
21681;SDS011;11002;48.256;10.084;2022-08-19T10:35:03;7.00;;;3.63;;
21681;SDS011;11002;48.256;10.084;2022-08-19T10:37:33;5.18;;;3.75;;
21681;SDS011;11002;48.256;10.084;2022-08-19T10:40:03;7.70;;;3.60;;
21681;SDS011;11002;48.256;10.084;2022-08-19T10:42:33;4.40;;;3.42;;
21681;SDS011;11002;48.256;10.084;2022-08-19T10:45:01;4.85;;;3.78;;
21681;SDS011;11002;48.256;10.084;2022-08-19T10:47:30;3.85;;;3.55;;
21681;SDS011;11002;48.256;10.084;2022-08-19T10:49:57;3.95;;;3.55;;
21681;SDS011;11002;48.256;10.084;2022-08-19T10:55:10;4.25;;;3.85;;
21681;SDS011;11002;48.256;10.084;2022-08-19T10:57:54;3.83;;;3.53;;
21681;SDS011;11002;48.256;10.084;2022-08-19T11:00:22;4.45;;;3.88;;
21681;SDS011;11002;48.256;10.084;2022-08-19T11:02:55;4.30;;;3.90;;
21681;SDS011;11002;48.256;10.084;2022-08-19T11:05:22;5.75;;;4.15;;
21681;SDS011;11002;48.256;10.084;2022-08-19T11:07:50;6.20;;;4.10;;
21681;SDS011;11002;48.256;10.084;2022-08-19T11:10:17;6.03;;;4.18;;
21681;SDS011;11002;48.256;10.084;2022-08-19T11:12:45;8.32;;;4.10;;
21681;SDS011;11002;48.256;10.084;2022-08-19T11:15:13;7.28;;;3.97;;
21681;SDS011;11002;48.256;10.084;2022-08-19T11:17:41;5.88;;;3.55;;
21681;SDS011;11002;48.256;10.084;2022-08-19T11:20:10;5.60;;;3.85;;
21681;SDS011;11002;48.256;10.084;2022-08-19T11:22:39;5.88;;;4.00;;
21681;SDS011;11002;48.256;10.084;2022-08-19T11:25:07;7.75;;;4.30;;
21681;SDS011;11002;48.256;10.084;2022-08-19T11:27:37;6.18;;;4.10;;
21681;SDS011;11002;48.256;10.084;2022-08-19T11:30:08;8.50;;;4.32;;
21681;SDS011;11002;48.256;10.084;2022-08-19T11:32:36;7.00;;;3.90;;
21681;SDS011;11002;48.256;10.084;2022-08-19T11:35:05;7.80;;;4.18;;
21681;SDS011;11002;48.256;10.084;2022-08-19T11:37:35;9.18;;;4.10;;
21681;SDS011;11002;48.256;10.084;2022-08-19T11:40:04;8.43;;;4.20;;
21681;SDS011;11002;48.256;10.084;2022-08-19T11:42:32;5.05;;;3.75;;
21681;SDS011;11002;48.256;10.084;2022-08-19T11:47:44;6.43;;;4.28;;
21681;SDS011;11002;48.256;10.084;2022-08-19T11:50:12;6.50;;;3.80;;
21681;SDS011;11002;48.256;10.084;2022-08-19T11:52:41;5.63;;;4.43;;
21681;SDS011;11002;48.256;10.084;2022-08-19T11:55:09;6.72;;;4.38;;
21681;SDS011;11002;48.256;10.084;2022-08-19T11:57:37;6.20;;;4.20;;
21681;SDS011;11002;48.256;10.084;2022-08-19T12:00:06;5.13;;;3.90;;
21681;SDS011;11002;48.256;10.084;2022-08-19T12:02:37;7.13;;;3.90;;
21681;SDS011;11002;48.256;10.084;2022-08-19T12:05:05;5.82;;;3.95;;
21681;SDS011;11002;48.256;10.084;2022-08-19T12:07:33;5.95;;;3.78;;
21681;SDS011;11002;48.256;10.084;2022-08-19T12:10:02;7.95;;;3.95;;
21681;SDS011;11002;48.256;10.084;2022-08-19T12:12:30;10.43;;;4.75;;
21681;SDS011;11002;48.256;10.084;2022-08-19T12:14:57;12.25;;;4.78;;
21681;SDS011;11002;48.256;10.084;2022-08-19T12:17:25;16.15;;;4.70;;
21681;SDS011;11002;48.256;10.084;2022-08-19T12:19:54;91.32;;;8.90;;
21681;SDS011;11002;48.256;10.084;2022-08-19T12:22:21;148.32;;;13.35;;
21681;SDS011;11002;48.256;10.084;2022-08-19T12:24:48;137.57;;;13.48;;
21681;SDS011;11002;48.256;10.084;2022-08-19T12:27:19;164.73;;;14.23;;
21681;SDS011;11002;48.256;10.084;2022-08-19T12:29:46;116.40;;;12.43;;
21681;SDS011;11002;48.256;10.084;2022-08-19T12:32:16;111.95;;;11.30;;
21681;SDS011;11002;48.256;10.084;2022-08-19T12:34:44;93.22;;;10.27;;
21681;SDS011;11002;48.256;10.084;2022-08-19T12:37:12;73.53;;;8.73;;
21681;SDS011;11002;48.256;10.084;2022-08-19T12:39:40;78.55;;;9.90;;
21681;SDS011;11002;48.256;10.084;2022-08-19T12:42:08;67.72;;;9.25;;
21681;SDS011;11002;48.256;10.084;2022-08-19T12:44:38;47.25;;;9.07;;
21681;SDS011;11002;48.256;10.084;2022-08-19T12:47:08;52.33;;;8.02;;
21681;SDS011;11002;48.256;10.084;2022-08-19T12:49:36;48.80;;;8.35;;
21681;SDS011;11002;48.256;10.084;2022-08-19T12:52:05;66.25;;;9.70;;
21681;SDS011;11002;48.256;10.084;2022-08-19T12:54:33;56.70;;;8.27;;
21681;SDS011;11002;48.256;10.084;2022-08-19T12:57:04;48.22;;;8.13;;
21681;SDS011;11002;48.256;10.084;2022-08-19T12:59:33;47.50;;;8.57;;
21681;SDS011;11002;48.256;10.084;2022-08-19T13:02:03;37.05;;;7.25;;
21681;SDS011;11002;48.256;10.084;2022-08-19T13:04:31;39.53;;;7.75;;
21681;SDS011;11002;48.256;10.084;2022-08-19T13:07:00;42.38;;;8.07;;
21681;SDS011;11002;48.256;10.084;2022-08-19T13:09:27;37.40;;;8.23;;
21681;SDS011;11002;48.256;10.084;2022-08-19T13:11:55;36.38;;;7.22;;
21681;SDS011;11002;48.256;10.084;2022-08-19T13:14:22;34.72;;;6.63;;
21681;SDS011;11002;48.256;10.084;2022-08-19T13:16:50;36.00;;;7.00;;
21681;SDS011;11002;48.256;10.084;2022-08-19T13:19:18;39.72;;;6.72;;
21681;SDS011;11002;48.256;10.084;2022-08-19T13:21:49;23.05;;;6.80;;
21681;SDS011;11002;48.256;10.084;2022-08-19T13:24:17;34.25;;;7.00;;
21681;SDS011;11002;48.256;10.084;2022-08-19T13:26:44;35.67;;;7.35;;
21681;SDS011;11002;48.256;10.084;2022-08-19T13:29:13;41.60;;;6.97;;
21681;SDS011;11002;48.256;10.084;2022-08-19T13:31:58;24.77;;;6.90;;
21681;SDS011;11002;48.256;10.084;2022-08-19T13:34:43;37.87;;;6.80;;
21681;SDS011;11002;48.256;10.084;2022-08-19T13:37:11;39.03;;;6.65;;
21681;SDS011;11002;48.256;10.084;2022-08-19T13:39:39;20.45;;;6.40;;
21681;SDS011;11002;48.256;10.084;2022-08-19T13:42:07;26.10;;;5.97;;
21681;SDS011;11002;48.256;10.084;2022-08-19T13:44:35;19.25;;;6.13;;
21681;SDS011;11002;48.256;10.084;2022-08-19T13:47:03;22.63;;;5.65;;
21681;SDS011;11002;48.256;10.084;2022-08-19T13:49:32;19.77;;;5.13;;
21681;SDS011;11002;48.256;10.084;2022-08-19T13:52:02;17.80;;;5.68;;
21681;SDS011;11002;48.256;10.084;2022-08-19T13:54:31;17.40;;;5.93;;
21681;SDS011;11002;48.256;10.084;2022-08-19T13:56:58;28.55;;;5.35;;
21681;SDS011;11002;48.256;10.084;2022-08-19T13:59:25;16.00;;;5.82;;
21681;SDS011;11002;48.256;10.084;2022-08-19T14:01:56;20.10;;;5.93;;
21681;SDS011;11002;48.256;10.084;2022-08-19T14:04:24;17.05;;;5.70;;
21681;SDS011;11002;48.256;10.084;2022-08-19T14:06:52;14.80;;;5.68;;
21681;SDS011;11002;48.256;10.084;2022-08-19T14:09:21;17.00;;;5.38;;
21681;SDS011;11002;48.256;10.084;2022-08-19T14:11:49;18.85;;;5.75;;
21681;SDS011;11002;48.256;10.084;2022-08-19T14:14:16;12.75;;;5.43;;
21681;SDS011;11002;48.256;10.084;2022-08-19T14:16:44;16.75;;;5.40;;
21681;SDS011;11002;48.256;10.084;2022-08-19T14:19:11;17.17;;;4.50;;
21681;SDS011;11002;48.256;10.084;2022-08-19T14:21:39;23.02;;;5.40;;
21681;SDS011;11002;48.256;10.084;2022-08-19T14:24:06;15.52;;;5.18;;
21681;SDS011;11002;48.256;10.084;2022-08-19T14:26:35;12.63;;;5.13;;
21681;SDS011;11002;48.256;10.084;2022-08-19T14:29:02;13.15;;;4.70;;
21681;SDS011;11002;48.256;10.084;2022-08-19T14:31:29;16.27;;;5.47;;
21681;SDS011;11002;48.256;10.084;2022-08-19T14:33:57;13.68;;;4.80;;
21681;SDS011;11002;48.256;10.084;2022-08-19T14:36:24;11.82;;;4.88;;
21681;SDS011;11002;48.256;10.084;2022-08-19T14:38:52;15.35;;;4.63;;
21681;SDS011;11002;48.256;10.084;2022-08-19T14:41:20;12.35;;;5.20;;
21681;SDS011;11002;48.256;10.084;2022-08-19T14:43:51;14.02;;;4.95;;
21681;SDS011;11002;48.256;10.084;2022-08-19T14:46:19;11.15;;;4.75;;
21681;SDS011;11002;48.256;10.084;2022-08-19T14:48:48;10.35;;;4.63;;
21681;SDS011;11002;48.256;10.084;2022-08-19T14:51:16;9.52;;;4.47;;